sensor_id;sensor_type;location;lat;lon;timestamp;temperature;humidity
65421;DHT22;52028;50.658;14.004;2022-09-09T00:00:11;13.48;91.89
65421;DHT22;52028;50.658;14.004;2022-09-09T00:02:37;13.51;92.26
65421;DHT22;52028;50.658;14.004;2022-09-09T00:07:43;13.63;92.35
65421;DHT22;52028;50.658;14.004;2022-09-09T00:18:28;13.84;92.48
65421;DHT22;52028;50.658;14.004;2022-09-09T00:21:04;13.85;92.51
65421;DHT22;52028;50.658;14.004;2022-09-09T00:23:34;13.85;92.56
65421;DHT22;52028;50.658;14.004;2022-09-09T00:29:10;13.89;93.07
65421;DHT22;52028;50.658;14.004;2022-09-09T00:31:38;13.98;93.12
65421;DHT22;52028;50.658;14.004;2022-09-09T00:34:22;14.01;93.14
65421;DHT22;52028;50.658;14.004;2022-09-09T00:36:50;13.85;93.37
65421;DHT22;52028;50.658;14.004;2022-09-09T00:39:39;13.85;93.90
65421;DHT22;52028;50.658;14.004;2022-09-09T00:42:16;13.82;94.14
65421;DHT22;52028;50.658;14.004;2022-09-09T00:47:52;13.75;94.36
65421;DHT22;52028;50.658;14.004;2022-09-09T00:50:45;13.68;94.56
65421;DHT22;52028;50.658;14.004;2022-09-09T00:58:24;13.36;95.21
65421;DHT22;52028;50.658;14.004;2022-09-09T01:01:00;13.35;95.30
65421;DHT22;52028;50.658;14.004;2022-09-09T01:03:37;13.26;95.38
65421;DHT22;52028;50.658;14.004;2022-09-09T01:06:22;13.35;95.34
65421;DHT22;52028;50.658;14.004;2022-09-09T01:16:37;13.44;95.10
65421;DHT22;52028;50.658;14.004;2022-09-09T01:19:07;13.42;95.10
65421;DHT22;52028;50.658;14.004;2022-09-09T01:22:02;13.42;95.18
65421;DHT22;52028;50.658;14.004;2022-09-09T01:24:40;13.53;95.14
65421;DHT22;52028;50.658;14.004;2022-09-09T01:27:08;13.67;95.07
65421;DHT22;52028;50.658;14.004;2022-09-09T01:29:34;13.74;94.70
65421;DHT22;52028;50.658;14.004;2022-09-09T01:32:02;13.70;94.34
65421;DHT22;52028;50.658;14.004;2022-09-09T01:34:32;13.84;94.09
65421;DHT22;52028;50.658;14.004;2022-09-09T01:37:02;13.85;93.75
65421;DHT22;52028;50.658;14.004;2022-09-09T01:39:33;13.84;93.47
65421;DHT22;52028;50.658;14.004;2022-09-09T01:42:00;13.85;93.20
65421;DHT22;52028;50.658;14.004;2022-09-09T01:44:27;13.88;92.76
65421;DHT22;52028;50.658;14.004;2022-09-09T01:46:53;13.88;92.69
65421;DHT22;52028;50.658;14.004;2022-09-09T01:49:18;13.84;92.70
65421;DHT22;52028;50.658;14.004;2022-09-09T01:51:47;13.84;92.42
65421;DHT22;52028;50.658;14.004;2022-09-09T01:54:14;13.88;92.28
65421;DHT22;52028;50.658;14.004;2022-09-09T02:01:59;14.02;92.11
65421;DHT22;52028;50.658;14.004;2022-09-09T02:04:37;13.97;92.14
65421;DHT22;52028;50.658;14.004;2022-09-09T02:07:08;13.82;92.45
65421;DHT22;52028;50.658;14.004;2022-09-09T02:09:36;13.86;92.58
65421;DHT22;52028;50.658;14.004;2022-09-09T02:12:19;13.86;92.65
65421;DHT22;52028;50.658;14.004;2022-09-09T02:14:52;13.85;92.71
65421;DHT22;52028;50.658;14.004;2022-09-09T02:17:26;13.88;92.64
65421;DHT22;52028;50.658;14.004;2022-09-09T02:19:58;13.92;92.75
65421;DHT22;52028;50.658;14.004;2022-09-09T02:22:26;13.95;92.58
65421;DHT22;52028;50.658;14.004;2022-09-09T02:24:55;13.73;92.75
65421;DHT22;52028;50.658;14.004;2022-09-09T02:27:22;13.54;93.34
65421;DHT22;52028;50.658;14.004;2022-09-09T02:29:49;13.42;94.00
65421;DHT22;52028;50.658;14.004;2022-09-09T02:32:22;13.30;94.40
65421;DHT22;52028;50.658;14.004;2022-09-09T02:34:50;13.32;94.55
65421;DHT22;52028;50.658;14.004;2022-09-09T02:37:19;13.43;94.49
65421;DHT22;52028;50.658;14.004;2022-09-09T02:39:46;13.42;94.46
65421;DHT22;52028;50.658;14.004;2022-09-09T02:42:12;13.50;94.34
65421;DHT22;52028;50.658;14.004;2022-09-09T02:44:39;13.58;94.21
65421;DHT22;52028;50.658;14.004;2022-09-09T02:53:09;13.74;93.73
65421;DHT22;52028;50.658;14.004;2022-09-09T02:55:49;13.75;93.63
65421;DHT22;52028;50.658;14.004;2022-09-09T02:58:18;13.71;93.49
65421;DHT22;52028;50.658;14.004;2022-09-09T03:00:47;13.77;93.23
65421;DHT22;52028;50.658;14.004;2022-09-09T03:03:13;13.75;92.93
65421;DHT22;52028;50.658;14.004;2022-09-09T03:05:38;13.73;93.03
65421;DHT22;52028;50.658;14.004;2022-09-09T03:08:04;13.79;93.29
65421;DHT22;52028;50.658;14.004;2022-09-09T03:10:31;13.75;92.81
65421;DHT22;52028;50.658;14.004;2022-09-09T03:12:56;13.75;92.63
65421;DHT22;52028;50.658;14.004;2022-09-09T03:15:22;13.65;92.94
65421;DHT22;52028;50.658;14.004;2022-09-09T03:17:47;13.46;93.30
65421;DHT22;52028;50.658;14.004;2022-09-09T03:20:13;13.51;93.24
65421;DHT22;52028;50.658;14.004;2022-09-09T03:22:38;13.39;93.32
65421;DHT22;52028;50.658;14.004;2022-09-09T03:25:04;13.32;93.80
65421;DHT22;52028;50.658;14.004;2022-09-09T03:27:31;13.20;94.07
65421;DHT22;52028;50.658;14.004;2022-09-09T03:29:56;13.11;94.43
65421;DHT22;52028;50.658;14.004;2022-09-09T03:32:22;13.18;94.70
65421;DHT22;52028;50.658;14.004;2022-09-09T03:34:49;13.27;94.77
65421;DHT22;52028;50.658;14.004;2022-09-09T03:37:17;13.23;94.76
65421;DHT22;52028;50.658;14.004;2022-09-09T03:39:43;13.24;94.79
65421;DHT22;52028;50.658;14.004;2022-09-09T03:42:09;13.27;94.62
65421;DHT22;52028;50.658;14.004;2022-09-09T03:44:34;13.12;94.52
65421;DHT22;52028;50.658;14.004;2022-09-09T03:46:59;12.96;94.56
65421;DHT22;52028;50.658;14.004;2022-09-09T03:49:27;12.88;94.81
65421;DHT22;52028;50.658;14.004;2022-09-09T03:51:56;12.83;95.11
65421;DHT22;52028;50.658;14.004;2022-09-09T03:54:23;12.87;95.05
65421;DHT22;52028;50.658;14.004;2022-09-09T03:56:48;12.89;94.98
65421;DHT22;52028;50.658;14.004;2022-09-09T03:59:14;12.96;94.82
65421;DHT22;52028;50.658;14.004;2022-09-09T04:01:39;12.88;94.85
65421;DHT22;52028;50.658;14.004;2022-09-09T04:04:05;13.01;94.67
65421;DHT22;52028;50.658;14.004;2022-09-09T04:06:30;13.06;94.69
65421;DHT22;52028;50.658;14.004;2022-09-09T04:08:59;12.91;94.71
65421;DHT22;52028;50.658;14.004;2022-09-09T04:11:24;12.99;94.90
65421;DHT22;52028;50.658;14.004;2022-09-09T04:13:49;13.15;94.65
65421;DHT22;52028;50.658;14.004;2022-09-09T04:16:15;13.23;94.42
65421;DHT22;52028;50.658;14.004;2022-09-09T04:18:41;13.27;94.13
65421;DHT22;52028;50.658;14.004;2022-09-09T04:21:11;13.36;93.84
65421;DHT22;52028;50.658;14.004;2022-09-09T04:23:37;13.42;93.50
65421;DHT22;52028;50.658;14.004;2022-09-09T04:26:03;13.40;93.51
65421;DHT22;52028;50.658;14.004;2022-09-09T04:28:31;13.39;93.34
65421;DHT22;52028;50.658;14.004;2022-09-09T04:31:05;13.40;93.21
65421;DHT22;52028;50.658;14.004;2022-09-09T04:33:31;13.44;92.91
65421;DHT22;52028;50.658;14.004;2022-09-09T04:35:57;13.40;93.02
65421;DHT22;52028;50.658;14.004;2022-09-09T04:38:22;13.43;92.90
65421;DHT22;52028;50.658;14.004;2022-09-09T04:40:49;13.50;92.62
65421;DHT22;52028;50.658;14.004;2022-09-09T04:43:16;13.56;92.31
65421;DHT22;52028;50.658;14.004;2022-09-09T04:45:43;13.67;92.10
65421;DHT22;52028;50.658;14.004;2022-09-09T04:48:09;13.63;91.85
65421;DHT22;52028;50.658;14.004;2022-09-09T04:50:37;13.40;92.38
65421;DHT22;52028;50.658;14.004;2022-09-09T04:53:04;13.11;92.84
65421;DHT22;52028;50.658;14.004;2022-09-09T04:55:33;13.22;93.32
65421;DHT22;52028;50.658;14.004;2022-09-09T04:58:08;13.43;93.24
65421;DHT22;52028;50.658;14.004;2022-09-09T05:00:35;13.36;92.91
65421;DHT22;52028;50.658;14.004;2022-09-09T05:03:04;13.20;92.93
65421;DHT22;52028;50.658;14.004;2022-09-09T05:05:31;13.13;93.47
65421;DHT22;52028;50.658;14.004;2022-09-09T05:08:03;13.11;93.84
65421;DHT22;52028;50.658;14.004;2022-09-09T05:10:30;13.08;93.96
65421;DHT22;52028;50.658;14.004;2022-09-09T05:12:55;13.23;93.71
65421;DHT22;52028;50.658;14.004;2022-09-09T05:15:21;13.42;93.52
65421;DHT22;52028;50.658;14.004;2022-09-09T05:17:46;13.58;92.93
65421;DHT22;52028;50.658;14.004;2022-09-09T05:20:12;13.58;92.49
65421;DHT22;52028;50.658;14.004;2022-09-09T05:22:39;13.35;92.34
65421;DHT22;52028;50.658;14.004;2022-09-09T05:25:06;13.26;92.83
65421;DHT22;52028;50.658;14.004;2022-09-09T05:27:33;13.22;92.74
65421;DHT22;52028;50.658;14.004;2022-09-09T05:29:59;13.29;92.70
65421;DHT22;52028;50.658;14.004;2022-09-09T05:32:24;13.35;92.58
65421;DHT22;52028;50.658;14.004;2022-09-09T05:34:50;13.57;92.31
65421;DHT22;52028;50.658;14.004;2022-09-09T05:37:16;13.68;91.72
65421;DHT22;52028;50.658;14.004;2022-09-09T05:39:42;13.91;90.90
65421;DHT22;52028;50.658;14.004;2022-09-09T05:42:07;13.74;90.77
65421;DHT22;52028;50.658;14.004;2022-09-09T05:44:33;13.67;90.91
65421;DHT22;52028;50.658;14.004;2022-09-09T05:46:59;13.60;91.07
65421;DHT22;52028;50.658;14.004;2022-09-09T05:49:25;13.86;91.14
65421;DHT22;52028;50.658;14.004;2022-09-09T05:51:50;13.84;91.10
65421;DHT22;52028;50.658;14.004;2022-09-09T05:54:16;13.85;91.10
65421;DHT22;52028;50.658;14.004;2022-09-09T05:56:41;13.84;91.08
65421;DHT22;52028;50.658;14.004;2022-09-09T05:59:07;13.99;90.82
65421;DHT22;52028;50.658;14.004;2022-09-09T06:01:35;14.16;90.26
65421;DHT22;52028;50.658;14.004;2022-09-09T06:04:01;14.23;90.13
65421;DHT22;52028;50.658;14.004;2022-09-09T06:06:31;14.29;89.50
65421;DHT22;52028;50.658;14.004;2022-09-09T06:08:57;14.25;89.31
65421;DHT22;52028;50.658;14.004;2022-09-09T06:11:30;14.50;88.94
65421;DHT22;52028;50.658;14.004;2022-09-09T06:14:00;14.65;88.25
65421;DHT22;52028;50.658;14.004;2022-09-09T06:16:28;14.65;87.85
65421;DHT22;52028;50.658;14.004;2022-09-09T06:18:55;14.60;87.92
65421;DHT22;52028;50.658;14.004;2022-09-09T06:21:22;14.60;88.21
65421;DHT22;52028;50.658;14.004;2022-09-09T06:23:48;14.95;87.59
65421;DHT22;52028;50.658;14.004;2022-09-09T06:26:14;15.06;86.93
65421;DHT22;52028;50.658;14.004;2022-09-09T06:28:42;15.16;86.38
65421;DHT22;52028;50.658;14.004;2022-09-09T06:31:10;15.19;85.97
65421;DHT22;52028;50.658;14.004;2022-09-09T06:33:38;15.02;86.27
65421;DHT22;52028;50.658;14.004;2022-09-09T06:36:14;15.06;86.44
65421;DHT22;52028;50.658;14.004;2022-09-09T06:38:41;15.12;86.21
65421;DHT22;52028;50.658;14.004;2022-09-09T06:41:10;15.15;86.05
65421;DHT22;52028;50.658;14.004;2022-09-09T06:43:36;15.02;86.20
65421;DHT22;52028;50.658;14.004;2022-09-09T06:46:05;15.06;86.59
65421;DHT22;52028;50.658;14.004;2022-09-09T06:48:31;15.12;86.51
65421;DHT22;52028;50.658;14.004;2022-09-09T06:51:06;15.03;86.53
65421;DHT22;52028;50.658;14.004;2022-09-09T06:53:37;15.00;86.42
65421;DHT22;52028;50.658;14.004;2022-09-09T06:58:49;14.95;86.96
65421;DHT22;52028;50.658;14.004;2022-09-09T07:01:16;14.91;87.18
65421;DHT22;52028;50.658;14.004;2022-09-09T07:03:47;15.05;87.01
65421;DHT22;52028;50.658;14.004;2022-09-09T07:06:15;15.16;86.97
65421;DHT22;52028;50.658;14.004;2022-09-09T07:08:43;15.02;86.97
65421;DHT22;52028;50.658;14.004;2022-09-09T07:11:10;15.10;87.14
65421;DHT22;52028;50.658;14.004;2022-09-09T07:13:36;15.34;86.97
65421;DHT22;52028;50.658;14.004;2022-09-09T07:16:06;14.96;87.23
65421;DHT22;52028;50.658;14.004;2022-09-09T07:18:33;14.96;88.01
65421;DHT22;52028;50.658;14.004;2022-09-09T07:21:00;15.25;87.05
65421;DHT22;52028;50.658;14.004;2022-09-09T07:23:27;15.54;86.82
65421;DHT22;52028;50.658;14.004;2022-09-09T07:25:53;15.91;85.73
65421;DHT22;52028;50.658;14.004;2022-09-09T07:28:20;16.12;84.30
65421;DHT22;52028;50.658;14.004;2022-09-09T07:30:59;16.20;84.15
65421;DHT22;52028;50.658;14.004;2022-09-09T07:33:28;16.12;83.68
65421;DHT22;52028;50.658;14.004;2022-09-09T07:36:02;15.96;84.89
65421;DHT22;52028;50.658;14.004;2022-09-09T07:38:28;16.24;84.19
65421;DHT22;52028;50.658;14.004;2022-09-09T07:41:03;16.60;82.75
65421;DHT22;52028;50.658;14.004;2022-09-09T07:43:28;16.46;82.41
65421;DHT22;52028;50.658;14.004;2022-09-09T07:45:58;16.56;81.86
65421;DHT22;52028;50.658;14.004;2022-09-09T07:48:24;16.41;82.25
65421;DHT22;52028;50.658;14.004;2022-09-09T07:50:49;16.27;83.52
65421;DHT22;52028;50.658;14.004;2022-09-09T07:53:16;16.19;84.39
65421;DHT22;52028;50.658;14.004;2022-09-09T07:55:41;16.29;84.15
65421;DHT22;52028;50.658;14.004;2022-09-09T07:58:08;16.37;84.22
65421;DHT22;52028;50.658;14.004;2022-09-09T08:00:33;16.69;82.56
65421;DHT22;52028;50.658;14.004;2022-09-09T08:03:05;17.06;80.42
65421;DHT22;52028;50.658;14.004;2022-09-09T08:05:33;17.19;79.13
65421;DHT22;52028;50.658;14.004;2022-09-09T08:08:04;17.61;78.85
65421;DHT22;52028;50.658;14.004;2022-09-09T08:10:46;17.84;77.20
65421;DHT22;52028;50.658;14.004;2022-09-09T08:13:34;18.06;76.76
65421;DHT22;52028;50.658;14.004;2022-09-09T08:18:38;18.44;72.23
65421;DHT22;52028;50.658;14.004;2022-09-09T08:21:06;18.44;73.91
65421;DHT22;52028;50.658;14.004;2022-09-09T08:23:33;18.37;74.98
65421;DHT22;52028;50.658;14.004;2022-09-09T08:26:04;18.37;74.59
65421;DHT22;52028;50.658;14.004;2022-09-09T08:28:30;18.50;74.04
65421;DHT22;52028;50.658;14.004;2022-09-09T08:30:56;18.62;74.46
65421;DHT22;52028;50.658;14.004;2022-09-09T08:33:29;18.72;73.59
65421;DHT22;52028;50.658;14.004;2022-09-09T08:35:54;18.78;72.00
65421;DHT22;52028;50.658;14.004;2022-09-09T08:38:20;18.99;71.60
65421;DHT22;52028;50.658;14.004;2022-09-09T08:40:47;19.15;71.13
65421;DHT22;52028;50.658;14.004;2022-09-09T08:43:15;19.33;71.14
65421;DHT22;52028;50.658;14.004;2022-09-09T08:45:58;19.47;70.82
65421;DHT22;52028;50.658;14.004;2022-09-09T08:51:10;19.72;71.56
65421;DHT22;52028;50.658;14.004;2022-09-09T08:53:43;19.83;71.45
65421;DHT22;52028;50.658;14.004;2022-09-09T08:56:13;19.89;71.17
65421;DHT22;52028;50.658;14.004;2022-09-09T08:58:48;20.00;70.64
65421;DHT22;52028;50.658;14.004;2022-09-09T09:01:20;19.99;70.53
65421;DHT22;52028;50.658;14.004;2022-09-09T09:06:43;20.22;69.59
65421;DHT22;52028;50.658;14.004;2022-09-09T09:11:48;20.34;69.69
65421;DHT22;52028;50.658;14.004;2022-09-09T09:14:23;20.27;69.37
65421;DHT22;52028;50.658;14.004;2022-09-09T09:19:21;20.30;69.30
65421;DHT22;52028;50.658;14.004;2022-09-09T09:22:19;20.40;68.95
65421;DHT22;52028;50.658;14.004;2022-09-09T09:27:21;20.23;69.41
65421;DHT22;52028;50.658;14.004;2022-09-09T09:29:50;20.52;68.12
65421;DHT22;52028;50.658;14.004;2022-09-09T09:32:18;20.99;66.63
65421;DHT22;52028;50.658;14.004;2022-09-09T09:34:49;21.40;66.29
65421;DHT22;52028;50.658;14.004;2022-09-09T09:37:26;21.09;66.33
65421;DHT22;52028;50.658;14.004;2022-09-09T09:40:25;21.27;65.81
65421;DHT22;52028;50.658;14.004;2022-09-09T09:42:55;21.64;65.19
65421;DHT22;52028;50.658;14.004;2022-09-09T09:48:05;21.77;63.66
65421;DHT22;52028;50.658;14.004;2022-09-09T09:50:32;21.74;62.81
65421;DHT22;52028;50.658;14.004;2022-09-09T09:53:00;21.72;62.78
65421;DHT22;52028;50.658;14.004;2022-09-09T09:55:28;21.72;61.86
65421;DHT22;52028;50.658;14.004;2022-09-09T09:58:06;21.54;62.62
65421;DHT22;52028;50.658;14.004;2022-09-09T10:00:33;21.40;62.58
65421;DHT22;52028;50.658;14.004;2022-09-09T10:03:00;21.72;61.87
65421;DHT22;52028;50.658;14.004;2022-09-09T10:05:28;22.21;61.28
65421;DHT22;52028;50.658;14.004;2022-09-09T10:08:15;22.87;59.99
65421;DHT22;52028;50.658;14.004;2022-09-09T10:13:26;23.69;56.75
65421;DHT22;52028;50.658;14.004;2022-09-09T10:19:11;23.26;57.91
65421;DHT22;52028;50.658;14.004;2022-09-09T10:35:26;22.99;59.54
65421;DHT22;52028;50.658;14.004;2022-09-09T10:47:11;23.36;58.89
65421;DHT22;52028;50.658;14.004;2022-09-09T10:50:20;23.58;58.24
65421;DHT22;52028;50.658;14.004;2022-09-09T10:53:05;23.78;57.47
65421;DHT22;52028;50.658;14.004;2022-09-09T10:55:42;23.79;57.98
65421;DHT22;52028;50.658;14.004;2022-09-09T10:58:14;23.94;57.15
65421;DHT22;52028;50.658;14.004;2022-09-09T11:00:49;24.09;57.72
65421;DHT22;52028;50.658;14.004;2022-09-09T11:03:22;24.44;55.91
65421;DHT22;52028;50.658;14.004;2022-09-09T11:05:54;24.57;55.43
65421;DHT22;52028;50.658;14.004;2022-09-09T11:08:26;24.51;55.27
65421;DHT22;52028;50.658;14.004;2022-09-09T11:19:39;25.45;53.42
65421;DHT22;52028;50.658;14.004;2022-09-09T11:22:31;25.55;52.97
65421;DHT22;52028;50.658;14.004;2022-09-09T11:25:14;25.33;53.97
65421;DHT22;52028;50.658;14.004;2022-09-09T11:28:12;25.57;53.77
65421;DHT22;52028;50.658;14.004;2022-09-09T11:34:03;26.71;49.86
65421;DHT22;52028;50.658;14.004;2022-09-09T11:37:04;26.32;50.86
65421;DHT22;52028;50.658;14.004;2022-09-09T11:42:16;27.41;48.15
65421;DHT22;52028;50.658;14.004;2022-09-09T11:44:43;28.16;46.50
65421;DHT22;52028;50.658;14.004;2022-09-09T11:47:27;27.75;46.57
65421;DHT22;52028;50.658;14.004;2022-09-09T11:50:28;28.02;46.05
65421;DHT22;52028;50.658;14.004;2022-09-09T11:53:05;27.19;47.17
65421;DHT22;52028;50.658;14.004;2022-09-09T11:55:34;27.92;46.40
65421;DHT22;52028;50.658;14.004;2022-09-09T11:58:03;29.46;43.43
65421;DHT22;52028;50.658;14.004;2022-09-09T12:00:37;29.77;43.39
65421;DHT22;52028;50.658;14.004;2022-09-09T12:03:04;30.94;40.02
65421;DHT22;52028;50.658;14.004;2022-09-09T12:05:44;30.56;40.11
65421;DHT22;52028;50.658;14.004;2022-09-09T12:08:11;30.27;41.14
65421;DHT22;52028;50.658;14.004;2022-09-09T12:10:53;29.65;42.12
65421;DHT22;52028;50.658;14.004;2022-09-09T12:13:21;30.06;41.86
65421;DHT22;52028;50.658;14.004;2022-09-09T12:15:54;30.15;41.07
65421;DHT22;52028;50.658;14.004;2022-09-09T12:18:40;30.37;40.44
65421;DHT22;52028;50.658;14.004;2022-09-09T12:24:02;30.91;36.10
65421;DHT22;52028;50.658;14.004;2022-09-09T12:26:44;31.53;33.15
65421;DHT22;52028;50.658;14.004;2022-09-09T12:34:44;31.09;35.35
65421;DHT22;52028;50.658;14.004;2022-09-09T12:37:35;30.64;36.41
65421;DHT22;52028;50.658;14.004;2022-09-09T12:40:03;31.34;35.17
65421;DHT22;52028;50.658;14.004;2022-09-09T12:42:30;31.51;33.71
65421;DHT22;52028;50.658;14.004;2022-09-09T12:45:03;29.68;36.68
65421;DHT22;52028;50.658;14.004;2022-09-09T12:47:47;30.40;37.92
65421;DHT22;52028;50.658;14.004;2022-09-09T12:50:25;30.92;36.84
65421;DHT22;52028;50.658;14.004;2022-09-09T12:52:54;31.78;35.70
65421;DHT22;52028;50.658;14.004;2022-09-09T12:55:39;31.08;37.13
65421;DHT22;52028;50.658;14.004;2022-09-09T12:58:05;28.20;42.96
65421;DHT22;52028;50.658;14.004;2022-09-09T13:00:35;27.14;47.04
65421;DHT22;52028;50.658;14.004;2022-09-09T13:03:13;28.10;46.44
65421;DHT22;52028;50.658;14.004;2022-09-09T13:05:39;29.43;42.76
65421;DHT22;52028;50.658;14.004;2022-09-09T13:08:08;31.39;39.78
65421;DHT22;52028;50.658;14.004;2022-09-09T13:10:47;32.74;36.69
65421;DHT22;52028;50.658;14.004;2022-09-09T13:13:21;33.60;35.55
65421;DHT22;52028;50.658;14.004;2022-09-09T13:15:53;33.22;35.79
65421;DHT22;52028;50.658;14.004;2022-09-09T13:18:22;33.12;36.32
65421;DHT22;52028;50.658;14.004;2022-09-09T13:20:49;34.31;34.10
65421;DHT22;52028;50.658;14.004;2022-09-09T13:23:16;34.71;32.93
65421;DHT22;52028;50.658;14.004;2022-09-09T13:25:53;35.63;31.24
65421;DHT22;52028;50.658;14.004;2022-09-09T13:28:21;35.09;31.89
65421;DHT22;52028;50.658;14.004;2022-09-09T13:30:56;33.58;31.74
65421;DHT22;52028;50.658;14.004;2022-09-09T13:33:29;31.98;36.74
65421;DHT22;52028;50.658;14.004;2022-09-09T13:36:04;30.34;40.06
65421;DHT22;52028;50.658;14.004;2022-09-09T13:38:36;28.60;43.26
65421;DHT22;52028;50.658;14.004;2022-09-09T13:41:07;28.60;43.51
65421;DHT22;52028;50.658;14.004;2022-09-09T13:43:38;30.15;40.81
65421;DHT22;52028;50.658;14.004;2022-09-09T13:46:40;29.23;42.32
65421;DHT22;52028;50.658;14.004;2022-09-09T13:51:38;26.41;47.16
65421;DHT22;52028;50.658;14.004;2022-09-09T13:54:09;25.77;49.35
65421;DHT22;52028;50.658;14.004;2022-09-09T13:56:35;25.67;48.43
65421;DHT22;52028;50.658;14.004;2022-09-09T13:59:03;25.81;48.71
65421;DHT22;52028;50.658;14.004;2022-09-09T14:01:29;25.88;47.98
65421;DHT22;52028;50.658;14.004;2022-09-09T14:03:55;25.88;47.52
65421;DHT22;52028;50.658;14.004;2022-09-09T14:06:21;25.67;48.30
65421;DHT22;52028;50.658;14.004;2022-09-09T14:08:48;25.33;49.63
65421;DHT22;52028;50.658;14.004;2022-09-09T14:11:14;25.57;49.02
65421;DHT22;52028;50.658;14.004;2022-09-09T14:13:40;27.75;44.79
65421;DHT22;52028;50.658;14.004;2022-09-09T14:16:05;31.11;37.46
65421;DHT22;52028;50.658;14.004;2022-09-09T14:18:31;32.20;34.21
65421;DHT22;52028;50.658;14.004;2022-09-09T14:20:57;34.25;31.25
65421;DHT22;52028;50.658;14.004;2022-09-09T14:23:23;35.81;29.10
65421;DHT22;52028;50.658;14.004;2022-09-09T14:25:50;36.21;28.21
65421;DHT22;52028;50.658;14.004;2022-09-09T14:28:15;33.75;31.51
65421;DHT22;52028;50.658;14.004;2022-09-09T14:30:42;31.05;35.24
65421;DHT22;52028;50.658;14.004;2022-09-09T14:33:10;29.37;39.25
65421;DHT22;52028;50.658;14.004;2022-09-09T14:35:36;29.05;40.53
65421;DHT22;52028;50.658;14.004;2022-09-09T14:38:03;29.68;38.93
65421;DHT22;52028;50.658;14.004;2022-09-09T14:40:29;31.16;36.54
65421;DHT22;52028;50.658;14.004;2022-09-09T14:42:54;30.47;37.42
65421;DHT22;52028;50.658;14.004;2022-09-09T14:45:21;30.85;37.35
65421;DHT22;52028;50.658;14.004;2022-09-09T14:47:46;31.74;36.18
65421;DHT22;52028;50.658;14.004;2022-09-09T14:50:12;31.61;36.24
65421;DHT22;52028;50.658;14.004;2022-09-09T14:52:38;30.02;38.33
65421;DHT22;52028;50.658;14.004;2022-09-09T14:55:04;28.12;41.71
65421;DHT22;52028;50.658;14.004;2022-09-09T14:57:30;28.81;40.17
65421;DHT22;52028;50.658;14.004;2022-09-09T14:59:56;28.53;41.68
65421;DHT22;52028;50.658;14.004;2022-09-09T15:02:22;27.95;42.38
65421;DHT22;52028;50.658;14.004;2022-09-09T15:04:47;26.45;46.16
65421;DHT22;52028;50.658;14.004;2022-09-09T15:07:15;27.71;44.10
65421;DHT22;52028;50.658;14.004;2022-09-09T15:09:40;29.40;40.84
65421;DHT22;52028;50.658;14.004;2022-09-09T15:12:05;30.50;38.20
65421;DHT22;52028;50.658;14.004;2022-09-09T15:14:31;29.20;40.61
65421;DHT22;52028;50.658;14.004;2022-09-09T15:16:56;27.68;43.69
65421;DHT22;52028;50.658;14.004;2022-09-09T15:19:22;26.37;46.60
65421;DHT22;52028;50.658;14.004;2022-09-09T15:21:47;25.57;48.72
65421;DHT22;52028;50.658;14.004;2022-09-09T15:24:12;24.91;50.29
65421;DHT22;52028;50.658;14.004;2022-09-09T15:26:38;24.43;51.56
65421;DHT22;52028;50.658;14.004;2022-09-09T15:29:04;24.13;52.36
65421;DHT22;52028;50.658;14.004;2022-09-09T15:31:31;23.75;53.07
65421;DHT22;52028;50.658;14.004;2022-09-09T15:33:58;23.44;53.34
65421;DHT22;52028;50.658;14.004;2022-09-09T15:36:34;23.17;54.09
65421;DHT22;52028;50.658;14.004;2022-09-09T15:39:01;22.98;54.71
65421;DHT22;52028;50.658;14.004;2022-09-09T15:41:27;22.82;55.68
65421;DHT22;52028;50.658;14.004;2022-09-09T15:43:54;22.72;55.93
65421;DHT22;52028;50.658;14.004;2022-09-09T15:46:32;22.68;55.95
65421;DHT22;52028;50.658;14.004;2022-09-09T15:49:11;22.65;56.26
65421;DHT22;52028;50.658;14.004;2022-09-09T15:51:39;22.60;56.88
65421;DHT22;52028;50.658;14.004;2022-09-09T15:54:05;22.50;56.89
65421;DHT22;52028;50.658;14.004;2022-09-09T15:56:31;22.43;57.31
65421;DHT22;52028;50.658;14.004;2022-09-09T15:58:58;22.32;57.25
65421;DHT22;52028;50.658;14.004;2022-09-09T16:01:25;22.23;57.56
65421;DHT22;52028;50.658;14.004;2022-09-09T16:03:50;22.20;57.57
65421;DHT22;52028;50.658;14.004;2022-09-09T16:06:18;22.23;57.64
65421;DHT22;52028;50.658;14.004;2022-09-09T16:08:47;22.16;57.80
65421;DHT22;52028;50.658;14.004;2022-09-09T16:11:18;22.10;58.22
65421;DHT22;52028;50.658;14.004;2022-09-09T16:13:45;22.08;58.78
65421;DHT22;52028;50.658;14.004;2022-09-09T16:16:12;22.06;58.93
65421;DHT22;52028;50.658;14.004;2022-09-09T16:21:13;21.92;59.84
65421;DHT22;52028;50.658;14.004;2022-09-09T16:23:39;21.77;60.45
65421;DHT22;52028;50.658;14.004;2022-09-09T16:26:05;21.83;60.54
65421;DHT22;52028;50.658;14.004;2022-09-09T16:28:30;21.57;61.16
65421;DHT22;52028;50.658;14.004;2022-09-09T16:30:56;21.58;61.09
65421;DHT22;52028;50.658;14.004;2022-09-09T16:33:23;21.50;61.67
65421;DHT22;52028;50.658;14.004;2022-09-09T16:35:49;21.44;61.19
65421;DHT22;52028;50.658;14.004;2022-09-09T16:38:14;21.46;61.23
65421;DHT22;52028;50.658;14.004;2022-09-09T16:40:40;21.47;61.27
65421;DHT22;52028;50.658;14.004;2022-09-09T16:43:07;21.46;61.03
65421;DHT22;52028;50.658;14.004;2022-09-09T16:45:32;21.54;60.98
65421;DHT22;52028;50.658;14.004;2022-09-09T16:47:58;21.55;60.83
65421;DHT22;52028;50.658;14.004;2022-09-09T16:50:25;21.55;62.21
65421;DHT22;52028;50.658;14.004;2022-09-09T16:52:51;21.51;61.38
65421;DHT22;52028;50.658;14.004;2022-09-09T16:55:17;21.46;61.21
65421;DHT22;52028;50.658;14.004;2022-09-09T16:57:43;21.34;62.16
65421;DHT22;52028;50.658;14.004;2022-09-09T17:00:08;21.06;64.25
65421;DHT22;52028;50.658;14.004;2022-09-09T17:02:34;20.79;66.23
65421;DHT22;52028;50.658;14.004;2022-09-09T17:04:59;20.63;67.42
65421;DHT22;52028;50.658;14.004;2022-09-09T17:07:25;20.47;68.11
65421;DHT22;52028;50.658;14.004;2022-09-09T17:09:50;20.14;70.08
65421;DHT22;52028;50.658;14.004;2022-09-09T17:12:16;19.93;71.58
65421;DHT22;52028;50.658;14.004;2022-09-09T17:14:41;19.67;72.20
65421;DHT22;52028;50.658;14.004;2022-09-09T17:17:07;19.55;71.88
65421;DHT22;52028;50.658;14.004;2022-09-09T17:19:33;19.09;73.66
65421;DHT22;52028;50.658;14.004;2022-09-09T17:21:58;18.81;75.52
65421;DHT22;52028;50.658;14.004;2022-09-09T17:24:24;18.51;75.71
65421;DHT22;52028;50.658;14.004;2022-09-09T17:26:51;18.38;77.01
65421;DHT22;52028;50.658;14.004;2022-09-09T17:29:17;18.36;79.47